sensor_id;sensor_type;location;lat;lon;timestamp;P1;durP1;ratioP1;P2;durP2;ratioP2
7783;SDS011;19359;51.402;6.778;2023-06-14T00:02:02;538.95;;;490.00;;
7783;SDS011;19359;51.402;6.778;2023-06-14T00:04:30;541.67;;;493.10;;
7783;SDS011;19359;51.402;6.778;2023-06-14T00:06:58;535.92;;;488.92;;
7783;SDS011;19359;51.402;6.778;2023-06-14T00:09:25;538.65;;;491.10;;
7783;SDS011;19359;51.402;6.778;2023-06-14T00:11:52;541.55;;;493.67;;
7783;SDS011;19359;51.402;6.778;2023-06-14T00:14:19;523.45;;;476.98;;
7783;SDS011;19359;51.402;6.778;2023-06-14T00:16:46;551.70;;;502.88;;
7783;SDS011;19359;51.402;6.778;2023-06-14T00:19:13;512.10;;;467.08;;
7783;SDS011;19359;51.402;6.778;2023-06-14T00:21:42;521.42;;;475.00;;
7783;SDS011;19359;51.402;6.778;2023-06-14T00:24:09;516.67;;;470.92;;
7783;SDS011;19359;51.402;6.778;2023-06-14T00:26:36;509.92;;;464.67;;
7783;SDS011;19359;51.402;6.778;2023-06-14T00:29:03;514.38;;;468.42;;
7783;SDS011;19359;51.402;6.778;2023-06-14T00:31:30;521.92;;;475.30;;
7783;SDS011;19359;51.402;6.778;2023-06-14T00:33:57;516.45;;;469.73;;
7783;SDS011;19359;51.402;6.778;2023-06-14T00:36:25;529.83;;;482.85;;
7783;SDS011;19359;51.402;6.778;2023-06-14T00:38:53;535.78;;;488.35;;
7783;SDS011;19359;51.402;6.778;2023-06-14T00:41:20;511.80;;;466.25;;
7783;SDS011;19359;51.402;6.778;2023-06-14T00:43:47;475.45;;;433.77;;
7783;SDS011;19359;51.402;6.778;2023-06-14T00:46:14;494.08;;;449.27;;
7783;SDS011;19359;51.402;6.778;2023-06-14T00:48:42;465.98;;;426.10;;
7783;SDS011;19359;51.402;6.778;2023-06-14T00:51:09;467.63;;;425.85;;
7783;SDS011;19359;51.402;6.778;2023-06-14T00:53:36;342.38;;;315.05;;
7783;SDS011;19359;51.402;6.778;2023-06-14T00:56:06;400.73;;;366.00;;
7783;SDS011;19359;51.402;6.778;2023-06-14T00:58:33;402.92;;;370.35;;
7783;SDS011;19359;51.402;6.778;2023-06-14T01:01:00;463.05;;;422.83;;
7783;SDS011;19359;51.402;6.778;2023-06-14T01:03:27;466.85;;;426.70;;
7783;SDS011;19359;51.402;6.778;2023-06-14T01:05:56;477.90;;;436.63;;
7783;SDS011;19359;51.402;6.778;2023-06-14T01:08:28;477.38;;;434.95;;
7783;SDS011;19359;51.402;6.778;2023-06-14T01:11:00;456.20;;;417.13;;
7783;SDS011;19359;51.402;6.778;2023-06-14T01:13:33;431.05;;;394.88;;
7783;SDS011;19359;51.402;6.778;2023-06-14T01:16:01;454.30;;;414.80;;
7783;SDS011;19359;51.402;6.778;2023-06-14T01:18:28;462.60;;;421.63;;
7783;SDS011;19359;51.402;6.778;2023-06-14T01:20:57;480.90;;;438.58;;
7783;SDS011;19359;51.402;6.778;2023-06-14T01:23:25;476.13;;;432.67;;
7783;SDS011;19359;51.402;6.778;2023-06-14T01:25:57;458.20;;;417.98;;
7783;SDS011;19359;51.402;6.778;2023-06-14T01:28:25;457.02;;;416.65;;
7783;SDS011;19359;51.402;6.778;2023-06-14T01:30:57;435.65;;;398.20;;
7783;SDS011;19359;51.402;6.778;2023-06-14T01:33:28;411.27;;;376.23;;
7783;SDS011;19359;51.402;6.778;2023-06-14T01:35:55;419.95;;;384.85;;
7783;SDS011;19359;51.402;6.778;2023-06-14T01:38:24;381.25;;;350.05;;
7783;SDS011;19359;51.402;6.778;2023-06-14T01:40:54;400.88;;;367.00;;
7783;SDS011;19359;51.402;6.778;2023-06-14T01:43:23;387.40;;;355.15;;
7783;SDS011;19359;51.402;6.778;2023-06-14T01:45:50;325.42;;;300.08;;
7783;SDS011;19359;51.402;6.778;2023-06-14T01:48:18;424.90;;;387.15;;
7783;SDS011;19359;51.402;6.778;2023-06-14T01:50:46;458.20;;;416.30;;
7783;SDS011;19359;51.402;6.778;2023-06-14T01:53:14;471.58;;;428.67;;
7783;SDS011;19359;51.402;6.778;2023-06-14T01:55:43;415.70;;;378.83;;
7783;SDS011;19359;51.402;6.778;2023-06-14T01:58:13;460.23;;;418.10;;
7783;SDS011;19359;51.402;6.778;2023-06-14T02:00:41;413.10;;;378.55;;
7783;SDS011;19359;51.402;6.778;2023-06-14T02:03:10;486.60;;;439.92;;
7783;SDS011;19359;51.402;6.778;2023-06-14T02:05:38;495.75;;;449.40;;
7783;SDS011;19359;51.402;6.778;2023-06-14T02:08:05;498.52;;;451.50;;
7783;SDS011;19359;51.402;6.778;2023-06-14T02:10:33;482.52;;;436.52;;
7783;SDS011;19359;51.402;6.778;2023-06-14T02:13:01;468.23;;;423.80;;
7783;SDS011;19359;51.402;6.778;2023-06-14T02:15:28;454.08;;;411.38;;
7783;SDS011;19359;51.402;6.778;2023-06-14T02:17:59;460.27;;;415.63;;
7783;SDS011;19359;51.402;6.778;2023-06-14T02:20:27;441.60;;;399.73;;
7783;SDS011;19359;51.402;6.778;2023-06-14T02:22:54;451.40;;;407.73;;
7783;SDS011;19359;51.402;6.778;2023-06-14T02:25:21;438.15;;;397.55;;
7783;SDS011;19359;51.402;6.778;2023-06-14T02:27:48;443.17;;;401.40;;
7783;SDS011;19359;51.402;6.778;2023-06-14T02:30:16;453.92;;;409.02;;
7783;SDS011;19359;51.402;6.778;2023-06-14T02:32:44;438.35;;;396.70;;
7783;SDS011;19359;51.402;6.778;2023-06-14T02:35:13;450.20;;;406.83;;
7783;SDS011;19359;51.402;6.778;2023-06-14T02:37:40;421.52;;;381.30;;
7783;SDS011;19359;51.402;6.778;2023-06-14T02:40:08;451.05;;;407.05;;
7783;SDS011;19359;51.402;6.778;2023-06-14T02:42:35;454.38;;;410.70;;
7783;SDS011;19359;51.402;6.778;2023-06-14T02:45:02;451.45;;;407.67;;
7783;SDS011;19359;51.402;6.778;2023-06-14T02:47:31;444.58;;;401.63;;
7783;SDS011;19359;51.402;6.778;2023-06-14T02:49:58;429.33;;;388.30;;
7783;SDS011;19359;51.402;6.778;2023-06-14T02:52:25;444.65;;;401.85;;
7783;SDS011;19359;51.402;6.778;2023-06-14T02:54:52;433.75;;;391.92;;
7783;SDS011;19359;51.402;6.778;2023-06-14T02:57:19;423.88;;;383.98;;
7783;SDS011;19359;51.402;6.778;2023-06-14T02:59:46;443.08;;;399.98;;
7783;SDS011;19359;51.402;6.778;2023-06-14T03:02:14;425.65;;;385.08;;
7783;SDS011;19359;51.402;6.778;2023-06-14T03:04:42;431.98;;;390.65;;
7783;SDS011;19359;51.402;6.778;2023-06-14T03:07:09;431.77;;;390.88;;
7783;SDS011;19359;51.402;6.778;2023-06-14T03:09:37;412.42;;;372.52;;
7783;SDS011;19359;51.402;6.778;2023-06-14T03:12:05;421.65;;;381.10;;
7783;SDS011;19359;51.402;6.778;2023-06-14T03:14:33;408.10;;;370.15;;
7783;SDS011;19359;51.402;6.778;2023-06-14T03:17:00;407.08;;;368.52;;
7783;SDS011;19359;51.402;6.778;2023-06-14T03:19:27;408.10;;;370.17;;
7783;SDS011;19359;51.402;6.778;2023-06-14T03:21:55;413.48;;;374.30;;
7783;SDS011;19359;51.402;6.778;2023-06-14T03:24:23;405.85;;;367.35;;
7783;SDS011;19359;51.402;6.778;2023-06-14T03:26:52;417.08;;;377.58;;
7783;SDS011;19359;51.402;6.778;2023-06-14T03:29:19;348.50;;;318.35;;
7783;SDS011;19359;51.402;6.778;2023-06-14T03:31:56;375.77;;;341.70;;
7783;SDS011;19359;51.402;6.778;2023-06-14T03:34:24;373.13;;;338.80;;
7783;SDS011;19359;51.402;6.778;2023-06-14T03:36:51;393.00;;;356.23;;
7783;SDS011;19359;51.402;6.778;2023-06-14T03:39:19;399.70;;;361.45;;
7783;SDS011;19359;51.402;6.778;2023-06-14T03:41:46;415.50;;;374.95;;
7783;SDS011;19359;51.402;6.778;2023-06-14T03:44:14;426.65;;;383.42;;
7783;SDS011;19359;51.402;6.778;2023-06-14T03:46:42;415.85;;;375.10;;
7783;SDS011;19359;51.402;6.778;2023-06-14T03:49:10;410.55;;;371.17;;
7783;SDS011;19359;51.402;6.778;2023-06-14T03:51:37;440.73;;;396.10;;
7783;SDS011;19359;51.402;6.778;2023-06-14T03:54:04;434.52;;;391.73;;
7783;SDS011;19359;51.402;6.778;2023-06-14T03:56:33;458.65;;;410.52;;
7783;SDS011;19359;51.402;6.778;2023-06-14T03:59:01;431.05;;;388.85;;
7783;SDS011;19359;51.402;6.778;2023-06-14T04:01:28;418.63;;;378.15;;
7783;SDS011;19359;51.402;6.778;2023-06-14T04:03:56;445.77;;;401.77;;
7783;SDS011;19359;51.402;6.778;2023-06-14T04:06:23;437.33;;;392.17;;
7783;SDS011;19359;51.402;6.778;2023-06-14T04:08:56;405.85;;;366.17;;
7783;SDS011;19359;51.402;6.778;2023-06-14T04:11:28;412.48;;;372.63;;
7783;SDS011;19359;51.402;6.778;2023-06-14T04:13:57;397.23;;;359.73;;
7783;SDS011;19359;51.402;6.778;2023-06-14T04:16:24;430.35;;;385.70;;
7783;SDS011;19359;51.402;6.778;2023-06-14T04:18:51;412.48;;;373.65;;
7783;SDS011;19359;51.402;6.778;2023-06-14T04:21:19;407.52;;;368.77;;
7783;SDS011;19359;51.402;6.778;2023-06-14T04:23:48;414.13;;;374.08;;
7783;SDS011;19359;51.402;6.778;2023-06-14T04:26:17;413.90;;;374.92;;
7783;SDS011;19359;51.402;6.778;2023-06-14T04:28:46;403.92;;;366.92;;
7783;SDS011;19359;51.402;6.778;2023-06-14T04:31:14;406.15;;;368.45;;
7783;SDS011;19359;51.402;6.778;2023-06-14T04:33:41;399.80;;;363.15;;
7783;SDS011;19359;51.402;6.778;2023-06-14T04:36:10;391.67;;;355.58;;
7783;SDS011;19359;51.402;6.778;2023-06-14T04:38:37;392.65;;;357.63;;
7783;SDS011;19359;51.402;6.778;2023-06-14T04:41:05;437.42;;;394.83;;
7783;SDS011;19359;51.402;6.778;2023-06-14T04:43:32;413.80;;;375.23;;
7783;SDS011;19359;51.402;6.778;2023-06-14T04:46:03;347.70;;;315.92;;
7783;SDS011;19359;51.402;6.778;2023-06-14T04:48:36;294.45;;;271.10;;
7783;SDS011;19359;51.402;6.778;2023-06-14T04:51:04;321.42;;;292.90;;
7783;SDS011;19359;51.402;6.778;2023-06-14T04:53:31;305.98;;;280.00;;
7783;SDS011;19359;51.402;6.778;2023-06-14T04:55:59;342.98;;;313.17;;
7783;SDS011;19359;51.402;6.778;2023-06-14T04:58:28;255.70;;;234.55;;
7783;SDS011;19359;51.402;6.778;2023-06-14T05:00:55;390.42;;;355.95;;
7783;SDS011;19359;51.402;6.778;2023-06-14T05:03:24;403.67;;;364.35;;
7783;SDS011;19359;51.402;6.778;2023-06-14T05:05:52;408.15;;;369.20;;
7783;SDS011;19359;51.402;6.778;2023-06-14T05:08:20;393.25;;;355.70;;
7783;SDS011;19359;51.402;6.778;2023-06-14T05:10:48;411.75;;;372.00;;
7783;SDS011;19359;51.402;6.778;2023-06-14T05:13:15;421.67;;;381.90;;
7783;SDS011;19359;51.402;6.778;2023-06-14T05:15:42;402.33;;;365.20;;
7783;SDS011;19359;51.402;6.778;2023-06-14T05:18:09;512.13;;;460.40;;
7783;SDS011;19359;51.402;6.778;2023-06-14T05:20:38;511.20;;;460.05;;
7783;SDS011;19359;51.402;6.778;2023-06-14T05:23:08;521.83;;;469.20;;
7783;SDS011;19359;51.402;6.778;2023-06-14T05:25:40;531.38;;;478.38;;
7783;SDS011;19359;51.402;6.778;2023-06-14T05:28:08;533.60;;;480.70;;
7783;SDS011;19359;51.402;6.778;2023-06-14T05:30:37;525.80;;;474.13;;
7783;SDS011;19359;51.402;6.778;2023-06-14T05:33:04;520.05;;;468.90;;
7783;SDS011;19359;51.402;6.778;2023-06-14T05:35:31;445.52;;;405.15;;
7783;SDS011;19359;51.402;6.778;2023-06-14T05:37:58;426.10;;;387.95;;
7783;SDS011;19359;51.402;6.778;2023-06-14T05:40:26;426.70;;;388.50;;
7783;SDS011;19359;51.402;6.778;2023-06-14T05:42:54;437.42;;;398.95;;
7783;SDS011;19359;51.402;6.778;2023-06-14T05:45:21;444.60;;;404.17;;
7783;SDS011;19359;51.402;6.778;2023-06-14T05:47:48;433.10;;;395.27;;
7783;SDS011;19359;51.402;6.778;2023-06-14T05:50:15;454.83;;;412.73;;
7783;SDS011;19359;51.402;6.778;2023-06-14T05:52:42;468.30;;;423.83;;
7783;SDS011;19359;51.402;6.778;2023-06-14T05:55:09;452.15;;;412.50;;
7783;SDS011;19359;51.402;6.778;2023-06-14T05:57:38;427.98;;;389.77;;
7783;SDS011;19359;51.402;6.778;2023-06-14T06:00:07;447.33;;;408.42;;
7783;SDS011;19359;51.402;6.778;2023-06-14T06:02:39;435.48;;;397.38;;
7783;SDS011;19359;51.402;6.778;2023-06-14T06:05:07;365.75;;;336.35;;
7783;SDS011;19359;51.402;6.778;2023-06-14T06:07:34;565.30;;;513.25;;
7783;SDS011;19359;51.402;6.778;2023-06-14T06:10:01;596.30;;;540.03;;
7783;SDS011;19359;51.402;6.778;2023-06-14T06:12:29;485.40;;;442.65;;
7783;SDS011;19359;51.402;6.778;2023-06-14T06:14:57;609.72;;;554.42;;
7783;SDS011;19359;51.402;6.778;2023-06-14T06:17:24;600.25;;;546.90;;
7783;SDS011;19359;51.402;6.778;2023-06-14T06:19:51;615.90;;;560.13;;
7783;SDS011;19359;51.402;6.778;2023-06-14T06:22:19;605.08;;;551.40;;
7783;SDS011;19359;51.402;6.778;2023-06-14T06:24:46;641.20;;;582.22;;
7783;SDS011;19359;51.402;6.778;2023-06-14T06:27:13;636.63;;;580.28;;
7783;SDS011;19359;51.402;6.778;2023-06-14T06:29:41;623.28;;;568.90;;
7783;SDS011;19359;51.402;6.778;2023-06-14T06:32:09;621.63;;;566.97;;
7783;SDS011;19359;51.402;6.778;2023-06-14T06:34:36;620.38;;;565.83;;
7783;SDS011;19359;51.402;6.778;2023-06-14T06:37:04;595.55;;;543.30;;
7783;SDS011;19359;51.402;6.778;2023-06-14T06:39:31;572.83;;;521.58;;
7783;SDS011;19359;51.402;6.778;2023-06-14T06:41:58;572.00;;;521.58;;
7783;SDS011;19359;51.402;6.778;2023-06-14T06:44:25;512.58;;;468.30;;
7783;SDS011;19359;51.402;6.778;2023-06-14T06:46:52;537.70;;;488.88;;
7783;SDS011;19359;51.402;6.778;2023-06-14T06:49:21;508.88;;;463.23;;
7783;SDS011;19359;51.402;6.778;2023-06-14T06:51:59;493.52;;;449.13;;
7783;SDS011;19359;51.402;6.778;2023-06-14T06:54:26;465.33;;;427.92;;
7783;SDS011;19359;51.402;6.778;2023-06-14T06:56:53;481.67;;;440.70;;
7783;SDS011;19359;51.402;6.778;2023-06-14T06:59:21;476.70;;;434.27;;
7783;SDS011;19359;51.402;6.778;2023-06-14T07:01:48;492.90;;;446.38;;
7783;SDS011;19359;51.402;6.778;2023-06-14T07:04:15;435.25;;;399.85;;
7783;SDS011;19359;51.402;6.778;2023-06-14T07:06:43;470.77;;;428.67;;
7783;SDS011;19359;51.402;6.778;2023-06-14T07:09:10;474.00;;;434.58;;
7783;SDS011;19359;51.402;6.778;2023-06-14T07:11:39;479.40;;;436.30;;
7783;SDS011;19359;51.402;6.778;2023-06-14T07:14:06;471.85;;;432.13;;
7783;SDS011;19359;51.402;6.778;2023-06-14T07:16:34;385.77;;;356.50;;
7783;SDS011;19359;51.402;6.778;2023-06-14T07:19:01;581.50;;;530.15;;
7783;SDS011;19359;51.402;6.778;2023-06-14T07:21:28;584.70;;;533.15;;
7783;SDS011;19359;51.402;6.778;2023-06-14T07:23:57;568.35;;;518.58;;
7783;SDS011;19359;51.402;6.778;2023-06-14T07:26:24;572.75;;;523.13;;
7783;SDS011;19359;51.402;6.778;2023-06-14T07:28:51;572.67;;;522.60;;
7783;SDS011;19359;51.402;6.778;2023-06-14T07:31:18;599.35;;;545.10;;
7783;SDS011;19359;51.402;6.778;2023-06-14T07:33:46;594.88;;;544.03;;
7783;SDS011;19359;51.402;6.778;2023-06-14T07:36:13;613.78;;;561.25;;
7783;SDS011;19359;51.402;6.778;2023-06-14T07:38:40;450.13;;;415.48;;
7783;SDS011;19359;51.402;6.778;2023-06-14T07:41:09;449.60;;;415.00;;
7783;SDS011;19359;51.402;6.778;2023-06-14T07:43:36;424.38;;;391.10;;
7783;SDS011;19359;51.402;6.778;2023-06-14T07:46:03;437.23;;;398.80;;
7783;SDS011;19359;51.402;6.778;2023-06-14T07:48:30;423.17;;;387.90;;
7783;SDS011;19359;51.402;6.778;2023-06-14T07:50:57;418.67;;;386.73;;
7783;SDS011;19359;51.402;6.778;2023-06-14T07:53:26;442.20;;;406.42;;
7783;SDS011;19359;51.402;6.778;2023-06-14T07:55:53;446.08;;;409.30;;
7783;SDS011;19359;51.402;6.778;2023-06-14T07:58:21;432.83;;;397.38;;
7783;SDS011;19359;51.402;6.778;2023-06-14T08:00:48;423.75;;;390.52;;
7783;SDS011;19359;51.402;6.778;2023-06-14T08:03:16;424.70;;;391.38;;
7783;SDS011;19359;51.402;6.778;2023-06-14T08:05:43;432.98;;;398.30;;
7783;SDS011;19359;51.402;6.778;2023-06-14T08:08:10;418.35;;;386.00;;
7783;SDS011;19359;51.402;6.778;2023-06-14T08:10:37;418.23;;;386.50;;
7783;SDS011;19359;51.402;6.778;2023-06-14T08:13:05;560.15;;;512.30;;
7783;SDS011;19359;51.402;6.778;2023-06-14T08:15:33;445.13;;;410.27;;
7783;SDS011;19359;51.402;6.778;2023-06-14T08:18:00;437.40;;;402.30;;
7783;SDS011;19359;51.402;6.778;2023-06-14T08:20:27;521.55;;;478.38;;
7783;SDS011;19359;51.402;6.778;2023-06-14T08:22:56;423.58;;;390.95;;
7783;SDS011;19359;51.402;6.778;2023-06-14T08:25:23;445.48;;;409.30;;
7783;SDS011;19359;51.402;6.778;2023-06-14T08:27:50;447.73;;;412.73;;
7783;SDS011;19359;51.402;6.778;2023-06-14T08:30:18;455.42;;;419.40;;
7783;SDS011;19359;51.402;6.778;2023-06-14T08:32:46;454.30;;;416.90;;
7783;SDS011;19359;51.402;6.778;2023-06-14T08:35:13;465.40;;;428.02;;
7783;SDS011;19359;51.402;6.778;2023-06-14T08:37:41;472.20;;;433.15;;
7783;SDS011;19359;51.402;6.778;2023-06-14T08:40:18;474.13;;;434.65;;
7783;SDS011;19359;51.402;6.778;2023-06-14T08:42:47;464.35;;;425.83;;
7783;SDS011;19359;51.402;6.778;2023-06-14T08:45:14;487.23;;;446.20;;
7783;SDS011;19359;51.402;6.778;2023-06-14T08:47:41;451.23;;;416.77;;
7783;SDS011;19359;51.402;6.778;2023-06-14T08:50:11;420.10;;;387.50;;
7783;SDS011;19359;51.402;6.778;2023-06-14T08:52:41;449.67;;;414.58;;
7783;SDS011;19359;51.402;6.778;2023-06-14T08:55:15;441.25;;;407.30;;
7783;SDS011;19359;51.402;6.778;2023-06-14T08:57:45;446.00;;;411.45;;
7783;SDS011;19359;51.402;6.778;2023-06-14T09:00:14;456.58;;;419.60;;
7783;SDS011;19359;51.402;6.778;2023-06-14T09:02:42;434.23;;;401.35;;
7783;SDS011;19359;51.402;6.778;2023-06-14T09:05:11;416.88;;;386.25;;
7783;SDS011;19359;51.402;6.778;2023-06-14T09:07:38;416.00;;;383.40;;
7783;SDS011;19359;51.402;6.778;2023-06-14T09:10:07;395.95;;;367.40;;
7783;SDS011;19359;51.402;6.778;2023-06-14T09:12:36;439.08;;;403.77;;
7783;SDS011;19359;51.402;6.778;2023-06-14T09:15:04;414.67;;;383.00;;
7783;SDS011;19359;51.402;6.778;2023-06-14T09:17:34;440.08;;;405.55;;
7783;SDS011;19359;51.402;6.778;2023-06-14T09:20:02;442.77;;;409.48;;
7783;SDS011;19359;51.402;6.778;2023-06-14T09:22:35;447.73;;;412.10;;
7783;SDS011;19359;51.402;6.778;2023-06-14T09:25:03;437.98;;;404.73;;
7783;SDS011;19359;51.402;6.778;2023-06-14T09:27:31;452.88;;;417.20;;
7783;SDS011;19359;51.402;6.778;2023-06-14T09:29:58;435.98;;;402.92;;
7783;SDS011;19359;51.402;6.778;2023-06-14T09:32:25;448.25;;;411.63;;
7783;SDS011;19359;51.402;6.778;2023-06-14T09:34:52;417.38;;;384.88;;
7783;SDS011;19359;51.402;6.778;2023-06-14T09:37:28;406.23;;;375.58;;
7783;SDS011;19359;51.402;6.778;2023-06-14T09:39:57;418.92;;;385.75;;
7783;SDS011;19359;51.402;6.778;2023-06-14T09:42:24;414.13;;;383.77;;
7783;SDS011;19359;51.402;6.778;2023-06-14T09:44:53;434.02;;;400.70;;
7783;SDS011;19359;51.402;6.778;2023-06-14T09:47:20;439.08;;;405.38;;
7783;SDS011;19359;51.402;6.778;2023-06-14T09:49:48;445.70;;;410.67;;
7783;SDS011;19359;51.402;6.778;2023-06-14T09:52:15;421.48;;;389.23;;
7783;SDS011;19359;51.402;6.778;2023-06-14T09:54:43;401.38;;;371.90;;
7783;SDS011;19359;51.402;6.778;2023-06-14T09:57:13;400.63;;;372.10;;
7783;SDS011;19359;51.402;6.778;2023-06-14T09:59:42;445.90;;;412.45;;
7783;SDS011;19359;51.402;6.778;2023-06-14T10:02:11;449.33;;;414.67;;
7783;SDS011;19359;51.402;6.778;2023-06-14T10:04:39;485.23;;;446.63;;
7783;SDS011;19359;51.402;6.778;2023-06-14T10:07:08;516.38;;;473.17;;
7783;SDS011;19359;51.402;6.778;2023-06-14T10:09:35;523.75;;;478.25;;
7783;SDS011;19359;51.402;6.778;2023-06-14T10:12:04;685.72;;;629.15;;
7783;SDS011;19359;51.402;6.778;2023-06-14T10:14:33;691.83;;;635.35;;
7783;SDS011;19359;51.402;6.778;2023-06-14T10:17:02;705.10;;;646.97;;
7783;SDS011;19359;51.402;6.778;2023-06-14T10:19:32;732.80;;;673.05;;
7783;SDS011;19359;51.402;6.778;2023-06-14T10:22:01;722.65;;;664.13;;
7783;SDS011;19359;51.402;6.778;2023-06-14T10:24:30;709.88;;;651.58;;
7783;SDS011;19359;51.402;6.778;2023-06-14T10:26:59;693.42;;;636.60;;
7783;SDS011;19359;51.402;6.778;2023-06-14T10:29:26;706.53;;;647.78;;
7783;SDS011;19359;51.402;6.778;2023-06-14T10:31:58;710.70;;;653.05;;
7783;SDS011;19359;51.402;6.778;2023-06-14T10:34:26;723.42;;;664.70;;
7783;SDS011;19359;51.402;6.778;2023-06-14T10:37:00;724.55;;;665.75;;
7783;SDS011;19359;51.402;6.778;2023-06-14T10:39:27;725.35;;;665.97;;
7783;SDS011;19359;51.402;6.778;2023-06-14T10:41:55;725.85;;;667.35;;
7783;SDS011;19359;51.402;6.778;2023-06-14T10:44:32;744.28;;;684.67;;
7783;SDS011;19359;51.402;6.778;2023-06-14T10:47:01;739.78;;;680.13;;
7783;SDS011;19359;51.402;6.778;2023-06-14T10:49:41;723.55;;;664.90;;
7783;SDS011;19359;51.402;6.778;2023-06-14T10:52:09;702.17;;;644.72;;
7783;SDS011;19359;51.402;6.778;2023-06-14T10:54:55;712.38;;;654.38;;
7783;SDS011;19359;51.402;6.778;2023-06-14T10:57:22;709.55;;;652.08;;
7783;SDS011;19359;51.402;6.778;2023-06-14T10:59:49;710.20;;;652.63;;
7783;SDS011;19359;51.402;6.778;2023-06-14T11:02:26;710.50;;;652.70;;
7783;SDS011;19359;51.402;6.778;2023-06-14T11:04:56;700.03;;;643.90;;
7783;SDS011;19359;51.402;6.778;2023-06-14T11:07:30;719.70;;;661.30;;
7783;SDS011;19359;51.402;6.778;2023-06-14T11:10:07;710.35;;;652.95;;
7783;SDS011;19359;51.402;6.778;2023-06-14T11:12:37;719.78;;;661.08;;
7783;SDS011;19359;51.402;6.778;2023-06-14T11:15:07;730.30;;;671.58;;
7783;SDS011;19359;51.402;6.778;2023-06-14T11:17:36;735.70;;;676.78;;
7783;SDS011;19359;51.402;6.778;2023-06-14T11:20:09;731.88;;;673.03;;
7783;SDS011;19359;51.402;6.778;2023-06-14T11:22:41;731.65;;;672.78;;
7783;SDS011;19359;51.402;6.778;2023-06-14T11:25:08;751.17;;;690.88;;
7783;SDS011;19359;51.402;6.778;2023-06-14T11:27:36;741.78;;;682.33;;
7783;SDS011;19359;51.402;6.778;2023-06-14T11:30:03;734.88;;;676.08;;
7783;SDS011;19359;51.402;6.778;2023-06-14T11:32:31;726.50;;;668.10;;
7783;SDS011;19359;51.402;6.778;2023-06-14T11:34:59;744.00;;;684.80;;
7783;SDS011;19359;51.402;6.778;2023-06-14T11:37:26;721.22;;;663.15;;
7783;SDS011;19359;51.402;6.778;2023-06-14T11:39:55;725.20;;;667.20;;
7783;SDS011;19359;51.402;6.778;2023-06-14T11:42:24;716.22;;;658.30;;
7783;SDS011;19359;51.402;6.778;2023-06-14T11:44:52;685.00;;;629.42;;
7783;SDS011;19359;51.402;6.778;2023-06-14T11:47:20;715.50;;;657.80;;
7783;SDS011;19359;51.402;6.778;2023-06-14T11:49:47;661.60;;;607.53;;
7783;SDS011;19359;51.402;6.778;2023-06-14T11:52:16;620.42;;;569.33;;
7783;SDS011;19359;51.402;6.778;2023-06-14T11:54:43;621.13;;;570.20;;
7783;SDS011;19359;51.402;6.778;2023-06-14T11:57:10;633.90;;;581.67;;
7783;SDS011;19359;51.402;6.778;2023-06-14T11:59:38;613.65;;;563.38;;
7783;SDS011;19359;51.402;6.778;2023-06-14T12:02:05;695.83;;;639.55;;
7783;SDS011;19359;51.402;6.778;2023-06-14T12:04:32;700.60;;;644.70;;
7783;SDS011;19359;51.402;6.778;2023-06-14T12:07:08;564.95;;;517.83;;
7783;SDS011;19359;51.402;6.778;2023-06-14T12:09:38;716.83;;;659.85;;
7783;SDS011;19359;51.402;6.778;2023-06-14T12:12:06;742.67;;;683.17;;
7783;SDS011;19359;51.402;6.778;2023-06-14T12:14:34;748.42;;;688.65;;
7783;SDS011;19359;51.402;6.778;2023-06-14T12:17:04;752.92;;;692.58;;
7783;SDS011;19359;51.402;6.778;2023-06-14T12:19:32;746.45;;;687.25;;
7783;SDS011;19359;51.402;6.778;2023-06-14T12:21:59;747.70;;;687.13;;
7783;SDS011;19359;51.402;6.778;2023-06-14T12:24:29;771.80;;;710.22;;
7783;SDS011;19359;51.402;6.778;2023-06-14T12:26:58;762.90;;;701.78;;
7783;SDS011;19359;51.402;6.778;2023-06-14T12:29:27;764.17;;;703.30;;
7783;SDS011;19359;51.402;6.778;2023-06-14T12:31:55;758.55;;;698.15;;
7783;SDS011;19359;51.402;6.778;2023-06-14T12:34:22;784.42;;;721.40;;
7783;SDS011;19359;51.402;6.778;2023-06-14T12:36:49;784.97;;;722.95;;
7783;SDS011;19359;51.402;6.778;2023-06-14T12:39:16;800.47;;;737.05;;
7783;SDS011;19359;51.402;6.778;2023-06-14T12:41:43;801.10;;;736.83;;
7783;SDS011;19359;51.402;6.778;2023-06-14T12:44:12;779.17;;;717.25;;
7783;SDS011;19359;51.402;6.778;2023-06-14T12:46:39;750.83;;;691.17;;
7783;SDS011;19359;51.402;6.778;2023-06-14T12:49:07;756.95;;;696.88;;
7783;SDS011;19359;51.402;6.778;2023-06-14T12:51:34;764.22;;;703.90;;
7783;SDS011;19359;51.402;6.778;2023-06-14T12:54:02;748.03;;;688.63;;
7783;SDS011;19359;51.402;6.778;2023-06-14T12:56:29;776.47;;;715.03;;
7783;SDS011;19359;51.402;6.778;2023-06-14T12:58:56;763.28;;;702.80;;
7783;SDS011;19359;51.402;6.778;2023-06-14T13:01:24;733.22;;;674.10;;
7783;SDS011;19359;51.402;6.778;2023-06-14T13:03:51;701.20;;;644.22;;
7783;SDS011;19359;51.402;6.778;2023-06-14T13:06:20;744.83;;;685.60;;
7783;SDS011;19359;51.402;6.778;2023-06-14T13:08:47;786.15;;;723.50;;
7783;SDS011;19359;51.402;6.778;2023-06-14T13:11:15;756.40;;;696.00;;
7783;SDS011;19359;51.402;6.778;2023-06-14T13:13:42;765.33;;;704.22;;
7783;SDS011;19359;51.402;6.778;2023-06-14T13:16:09;780.92;;;719.08;;
7783;SDS011;19359;51.402;6.778;2023-06-14T13:18:39;773.40;;;711.42;;
7783;SDS011;19359;51.402;6.778;2023-06-14T13:21:06;769.58;;;708.65;;
7783;SDS011;19359;51.402;6.778;2023-06-14T13:23:33;779.35;;;717.40;;
7783;SDS011;19359;51.402;6.778;2023-06-14T13:26:01;808.55;;;743.97;;
7783;SDS011;19359;51.402;6.778;2023-06-14T13:28:28;812.22;;;746.90;;
7783;SDS011;19359;51.402;6.778;2023-06-14T13:30:56;786.85;;;723.80;;
7783;SDS011;19359;51.402;6.778;2023-06-14T13:33:23;795.35;;;731.47;;
7783;SDS011;19359;51.402;6.778;2023-06-14T13:35:52;890.22;;;819.53;;
7783;SDS011;19359;51.402;6.778;2023-06-14T13:38:19;805.97;;;741.50;;
7783;SDS011;19359;51.402;6.778;2023-06-14T13:40:46;838.58;;;770.42;;
7783;SDS011;19359;51.402;6.778;2023-06-14T13:43:13;838.67;;;772.08;;
7783;SDS011;19359;51.402;6.778;2023-06-14T13:45:40;852.33;;;784.08;;
7783;SDS011;19359;51.402;6.778;2023-06-14T13:48:07;828.90;;;762.58;;
7783;SDS011;19359;51.402;6.778;2023-06-14T13:50:34;828.65;;;762.60;;
7783;SDS011;19359;51.402;6.778;2023-06-14T13:53:02;865.03;;;796.78;;
7783;SDS011;19359;51.402;6.778;2023-06-14T13:55:30;851.25;;;783.45;;
7783;SDS011;19359;51.402;6.778;2023-06-14T13:57:58;876.17;;;806.53;;
7783;SDS011;19359;51.402;6.778;2023-06-14T14:00:25;872.70;;;803.72;;
7783;SDS011;19359;51.402;6.778;2023-06-14T14:02:52;897.60;;;826.33;;
7783;SDS011;19359;51.402;6.778;2023-06-14T14:05:19;905.17;;;832.70;;
7783;SDS011;19359;51.402;6.778;2023-06-14T14:07:51;910.85;;;838.05;;
7783;SDS011;19359;51.402;6.778;2023-06-14T14:10:19;890.65;;;818.75;;
7783;SDS011;19359;51.402;6.778;2023-06-14T14:12:46;876.88;;;805.90;;
7783;SDS011;19359;51.402;6.778;2023-06-14T14:15:13;879.40;;;808.72;;